Time;durP1;ratioP1;P1;durP2;ratioP2;P2;SDS_P1;SDS_P2;PMS_P1;PMS_P2;Temp;Humidity;BMP_temperature;BMP_pressure;BME280_temperature;BME280_humidity;BME280_pressure;Samples;Min_cycle;Max_cycle;Signal;HPM_P1;HPM_P2
2023/01/16 00:01:52;;;;;;;2.07;0.83;;;;;;;;;;4966677;28;20672;-76
2023/01/16 00:04:18;;;;;;;2.77;1.07;;;;;;;;;;4937543;28;20226;-77
2023/01/16 00:06:46;;;;;;;2.57;1.00;;;;;;;;;;4963198;28;20233;-77
2023/01/16 00:09:18;;;;;;;2.47;1.10;;;;;;;;;;4966735;28;20213;-77
2023/01/16 00:11:46;;;;;;;3.10;0.93;;;;;;;;;;4942580;28;20230;-76
2023/01/16 00:14:18;;;;;;;1.33;1.00;;;;;;;;;;4950611;28;20234;-77
2023/01/16 00:16:46;;;;;;;2.20;0.80;;;;;;;;;;4969384;28;20320;-77
2023/01/16 00:19:12;;;;;;;2.67;0.97;;;;;;;;;;4969963;28;20727;-76
2023/01/16 00:21:40;;;;;;;5.27;3.30;;;;;;;;;;4967911;28;20300;-77
2023/01/16 00:24:08;;;;;;;10.27;6.13;;;;;;;;;;4969226;28;20288;-76
2023/01/16 00:26:33;;;;;;;7.40;3.90;;;;;;;;;;4956835;28;20229;-76
2023/01/16 00:29:02;;;;;;;12.20;6.27;;;;;;;;;;4957734;28;20460;-76
2023/01/16 00:31:29;;;;;;;17.20;7.63;;;;;;;;;;4980335;28;20225;-77
2023/01/16 00:34:00;;;;;;;12.10;5.87;;;;;;;;;;4949371;28;20223;-76
2023/01/16 00:36:28;;;;;;;9.60;4.43;;;;;;;;;;4966151;28;20569;-77
2023/01/16 00:38:58;;;;;;;51.80;24.53;;;;;;;;;;4954450;28;20332;-77
2023/01/16 00:41:26;;;;;;;45.87;21.27;;;;;;;;;;4959814;28;20686;-77
2023/01/16 00:43:58;;;;;;;12.20;6.27;;;;;;;;;;4972402;28;20317;-76
2023/01/16 00:46:26;;;;;;;2.20;2.00;;;;;;;;;;4966518;28;20226;-77
2023/01/16 00:48:54;;;;;;;4.20;1.97;;;;;;;;;;4948471;28;20232;-77
2023/01/16 00:51:24;;;;;;;1.17;1.07;;;;;;;;;;4955851;28;20233;-77
2023/01/16 00:53:52;;;;;;;1.03;0.90;;;;;;;;;;4950130;28;20234;-76
2023/01/16 00:56:17;;;;;;;2.20;0.90;;;;;;;;;;4949947;28;20705;-76
2023/01/16 00:58:48;;;;;;;1.13;1.00;;;;;;;;;;4956345;28;20234;-77
2023/01/16 01:01:13;;;;;;;2.63;1.00;;;;;;;;;;4978221;28;20221;-77
2023/01/16 01:03:43;;;;;;;1.50;1.20;;;;;;;;;;4982825;28;21157;-77
2023/01/16 01:06:11;;;;;;;2.27;1.10;;;;;;;;;;4950149;28;20300;-77
2023/01/16 01:08:41;;;;;;;2.90;1.57;;;;;;;;;;4972159;28;20244;-76
2023/01/16 01:11:13;;;;;;;1.73;1.00;;;;;;;;;;4970989;28;20228;-76
2023/01/16 01:13:39;;;;;;;1.90;1.10;;;;;;;;;;4951819;28;20274;-75
2023/01/16 01:16:10;;;;;;;2.10;1.07;;;;;;;;;;4965325;28;20216;-76
2023/01/16 01:18:35;;;;;;;4.47;1.40;;;;;;;;;;4969883;28;20230;-76
2023/01/16 01:21:05;;;;;;;3.70;1.57;;;;;;;;;;4947161;28;20217;-77
2023/01/16 01:23:31;;;;;;;1.93;1.10;;;;;;;;;;4967540;28;20316;-76
2023/01/16 01:26:05;;;;;;;2.70;1.40;;;;;;;;;;4947805;28;20245;-76
2023/01/16 01:28:30;;;;;;;1.83;1.20;;;;;;;;;;4955064;28;20305;-77
2023/01/16 01:30:56;;;;;;;5.43;1.37;;;;;;;;;;4962018;28;20705;-76
2023/01/16 01:33:28;;;;;;;1.33;1.00;;;;;;;;;;4965556;28;20214;-76
2023/01/16 01:35:56;;;;;;;1.37;1.07;;;;;;;;;;4980055;28;20225;-76
2023/01/16 01:38:28;;;;;;;1.83;1.17;;;;;;;;;;4965577;28;20233;-77
2023/01/16 01:40:56;;;;;;;2.30;1.10;;;;;;;;;;4977809;28;20569;-75
2023/01/16 01:43:43;;;;;;;4.00;1.20;;;;;;;;;;4946269;28;20773;-76
2023/01/16 01:46:39;;;;;;;0.97;0.90;;;;;;;;;;4979420;28;20229;-76
2023/01/16 01:49:13;;;;;;;2.90;1.20;;;;;;;;;;4958883;28;20595;-76
2023/01/16 01:51:40;;;;;;;2.83;1.20;;;;;;;;;;4966606;28;20590;-76
2023/01/16 01:54:09;;;;;;;2.30;1.07;;;;;;;;;;4956262;28;20309;-76
2023/01/16 01:56:36;;;;;;;2.40;1.10;;;;;;;;;;4957693;28;20725;-75
2023/01/16 01:59:14;;;;;;;2.10;1.00;;;;;;;;;;4975611;28;20221;-76
2023/01/16 02:01:42;;;;;;;5.97;1.17;;;;;;;;;;4970271;28;20232;-77
2023/01/16 02:04:14;;;;;;;1.17;0.90;;;;;;;;;;4964137;28;20221;-77
2023/01/16 02:06:44;;;;;;;4.30;1.33;;;;;;;;;;4961743;28;20221;-77
2023/01/16 02:09:13;;;;;;;1.67;1.00;;;;;;;;;;4955123;28;20309;-77
2023/01/16 02:12:00;;;;;;;1.90;1.10;;;;;;;;;;4979268;28;20250;-77
2023/01/16 02:14:26;;;;;;;2.30;1.00;;;;;;;;;;4956095;28;20218;-77
2023/01/16 02:20:10;;;;;;;2.30;0.80;;;;;;;;;;4972770;28;20225;-77
2023/01/16 02:23:09;;;;;;;4.37;1.33;;;;;;;;;;4957382;28;20689;-77
2023/01/16 02:25:56;;;;;;;2.53;1.03;;;;;;;;;;4970009;28;20238;-76
2023/01/16 02:28:49;;;;;;;2.23;1.13;;;;;;;;;;4978681;28;20676;-77
2023/01/16 02:31:51;;;;;;;2.17;1.10;;;;;;;;;;4969826;28;20218;-77
2023/01/16 02:34:27;;;;;;;1.57;0.93;;;;;;;;;;4970557;28;20339;-77
2023/01/16 02:37:12;;;;;;;1.10;0.80;;;;;;;;;;4980596;28;20727;-77
2023/01/16 02:39:45;;;;;;;2.27;1.00;;;;;;;;;;4961732;28;20217;-77
2023/01/16 02:42:37;;;;;;;1.37;0.80;;;;;;;;;;4969364;28;20224;-77
2023/01/16 02:45:21;;;;;;;1.80;1.10;;;;;;;;;;4980279;28;20209;-77
2023/01/16 02:48:09;;;;;;;2.57;1.07;;;;;;;;;;4969938;28;20305;-76
2023/01/16 02:51:02;;;;;;;3.10;1.10;;;;;;;;;;4979927;28;20722;-77
2023/01/16 02:54:13;;;;;;;3.37;1.13;;;;;;;;;;4962045;28;20764;-76
2023/01/16 02:56:59;;;;;;;1.50;0.80;;;;;;;;;;4924716;28;20245;-76
2023/01/16 02:59:25;;;;;;;1.87;0.93;;;;;;;;;;4905332;28;20227;-77
2023/01/16 03:01:50;;;;;;;3.77;0.77;;;;;;;;;;4923444;28;20590;-77
2023/01/16 03:04:50;;;;;;;2.43;1.10;;;;;;;;;;4950890;28;21016;-76
2023/01/16 03:07:43;;;;;;;1.97;0.90;;;;;;;;;;4968175;28;20226;-77
2023/01/16 03:10:40;;;;;;;2.97;1.20;;;;;;;;;;4976665;28;20893;-76
2023/01/16 03:13:27;;;;;;;1.80;0.80;;;;;;;;;;4976893;28;20292;-77
2023/01/16 03:16:19;;;;;;;1.27;0.83;;;;;;;;;;4970742;28;20252;-77
2023/01/16 03:19:06;;;;;;;2.13;0.73;;;;;;;;;;4981329;28;20238;-75
2023/01/16 03:21:42;;;;;;;3.10;0.80;;;;;;;;;;4962981;28;20320;-77
2023/01/16 03:24:21;;;;;;;2.60;0.93;;;;;;;;;;4968505;28;20665;-77
2023/01/16 03:26:48;;;;;;;1.20;0.80;;;;;;;;;;4975883;28;20226;-76
2023/01/16 03:29:31;;;;;;;2.73;1.13;;;;;;;;;;4944382;28;20317;-77
2023/01/16 03:32:19;;;;;;;1.40;0.93;;;;;;;;;;4964142;28;20225;-76
2023/01/16 03:34:54;;;;;;;1.90;1.03;;;;;;;;;;4952614;28;20603;-76
2023/01/16 03:37:20;;;;;;;1.57;1.00;;;;;;;;;;4948906;28;20238;-77
2023/01/16 03:39:48;;;;;;;1.33;0.70;;;;;;;;;;4964112;28;20654;-77
2023/01/16 03:42:22;;;;;;;1.90;0.87;;;;;;;;;;4936448;28;20821;-77
2023/01/16 03:44:50;;;;;;;2.40;0.73;;;;;;;;;;4976743;28;20221;-77
2023/01/16 03:47:23;;;;;;;0.90;0.70;;;;;;;;;;4952137;28;20228;-76
2023/01/16 03:49:51;;;;;;;1.30;0.70;;;;;;;;;;4977611;28;20256;-76
2023/01/16 03:52:19;;;;;;;4.07;1.20;;;;;;;;;;4952497;28;20217;-77
2023/01/16 03:55:07;;;;;;;2.03;0.80;;;;;;;;;;4954193;28;20229;-77
2023/01/16 03:57:34;;;;;;;3.97;0.83;;;;;;;;;;4978208;28;20679;-76
2023/01/16 04:00:00;;;;;;;1.37;0.80;;;;;;;;;;4964241;28;20225;-76
2023/01/16 04:02:40;;;;;;;1.40;0.97;;;;;;;;;;4953857;28;20665;-75
2023/01/16 04:05:34;;;;;;;1.50;0.90;;;;;;;;;;4949258;28;20214;-77
2023/01/16 04:08:03;;;;;;;2.90;1.20;;;;;;;;;;4933896;28;20332;-75
2023/01/16 04:10:34;;;;;;;1.60;0.60;;;;;;;;;;4982129;28;20308;-76
2023/01/16 04:13:13;;;;;;;2.63;1.30;;;;;;;;;;4967373;28;20240;-75
2023/01/16 04:15:48;;;;;;;1.40;0.80;;;;;;;;;;4971886;28;20229;-76
2023/01/16 04:18:16;;;;;;;1.33;0.80;;;;;;;;;;4942912;28;20895;-76
2023/01/16 04:20:45;;;;;;;2.23;0.90;;;;;;;;;;4974762;28;20222;-76
2023/01/16 04:23:15;;;;;;;1.70;0.90;;;;;;;;;;4952084;28;20236;-77
2023/01/16 04:25:43;;;;;;;3.30;1.20;;;;;;;;;;4951564;28;20646;-78
2023/01/16 04:28:13;;;;;;;2.10;1.17;;;;;;;;;;4966972;28;20267;-78
2023/01/16 04:30:39;;;;;;;2.87;1.10;;;;;;;;;;4971598;28;20279;-78
2023/01/16 04:33:09;;;;;;;2.67;0.90;;;;;;;;;;4957780;28;20218;-77
2023/01/16 04:35:34;;;;;;;1.97;0.60;;;;;;;;;;4980782;28;20229;-78
2023/01/16 04:38:07;;;;;;;1.40;0.90;;;;;;;;;;4964778;28;20221;-77
2023/01/16 04:40:35;;;;;;;2.63;1.20;;;;;;;;;;4963175;28;20236;-77
2023/01/16 04:43:04;;;;;;;4.47;3.30;;;;;;;;;;4981009;28;20266;-76
2023/01/16 04:45:30;;;;;;;4.67;4.07;;;;;;;;;;4997235;23;20228;-87
2023/01/16 04:47:56;;;;;;;2.23;1.47;;;;;;;;;;4949002;28;20219;-89
2023/01/16 04:50:24;;;;;;;2.47;1.60;;;;;;;;;;4967431;28;20224;-83
2023/01/16 04:52:51;;;;;;;2.87;1.30;;;;;;;;;;4973523;28;20222;-84
2023/01/16 04:55:17;;;;;;;2.10;1.00;;;;;;;;;;4956488;28;20218;-83
2023/01/16 04:57:45;;;;;;;1.50;1.10;;;;;;;;;;4955857;28;20238;-84
2023/01/16 05:00:13;;;;;;;1.73;1.20;;;;;;;;;;4944809;28;20226;-83
2023/01/16 05:02:39;;;;;;;1.40;0.77;;;;;;;;;;4959713;28;20226;-83
2023/01/16 05:05:09;;;;;;;1.87;0.70;;;;;;;;;;4937581;28;20229;-84
2023/01/16 05:07:39;;;;;;;2.10;1.13;;;;;;;;;;4930557;28;20293;-83
2023/01/16 05:10:05;;;;;;;1.60;0.90;;;;;;;;;;4968791;28;20312;-84
2023/01/16 05:12:33;;;;;;;1.17;0.67;;;;;;;;;;4957593;28;20257;-83
2023/01/16 05:15:03;;;;;;;1.50;0.70;;;;;;;;;;4943749;28;20985;-83
2023/01/16 05:17:29;;;;;;;3.20;1.13;;;;;;;;;;4990891;28;20237;-83
2023/01/16 05:19:54;;;;;;;1.20;0.90;;;;;;;;;;4953638;28;20231;-83
2023/01/16 05:22:22;;;;;;;1.40;0.90;;;;;;;;;;4984552;28;20225;-85
2023/01/16 05:24:50;;;;;;;1.13;0.67;;;;;;;;;;4978998;28;20640;-84
2023/01/16 05:27:15;;;;;;;2.43;0.90;;;;;;;;;;5001661;28;20296;-84
2023/01/16 05:29:41;;;;;;;0.70;0.70;;;;;;;;;;4989806;28;20290;-84
2023/01/16 05:32:06;;;;;;;2.20;0.90;;;;;;;;;;4976427;28;20213;-84
2023/01/16 05:34:32;;;;;;;3.03;1.00;;;;;;;;;;4998796;28;20224;-85
2023/01/16 05:36:59;;;;;;;4.23;0.97;;;;;;;;;;4996836;28;20235;-83
2023/01/16 05:39:25;;;;;;;1.00;0.70;;;;;;;;;;4963768;28;21098;-83
2023/01/16 05:41:51;;;;;;;1.93;0.90;;;;;;;;;;4977219;28;20221;-84
2023/01/16 05:44:19;;;;;;;2.03;0.90;;;;;;;;;;4984966;28;20221;-83
2023/01/16 05:46:46;;;;;;;2.03;1.00;;;;;;;;;;4980286;28;20601;-84
2023/01/16 05:49:12;;;;;;;0.90;0.57;;;;;;;;;;4984618;28;20221;-83
2023/01/16 05:51:37;;;;;;;3.20;0.70;;;;;;;;;;4967859;28;20223;-83
2023/01/16 05:54:05;;;;;;;2.17;0.93;;;;;;;;;;4981221;28;20814;-83
2023/01/16 05:56:33;;;;;;;1.53;0.77;;;;;;;;;;4991225;28;20635;-85
2023/01/16 05:58:59;;;;;;;2.10;0.77;;;;;;;;;;4976699;28;20232;-82
2023/01/16 06:01:27;;;;;;;0.87;0.60;;;;;;;;;;4964395;28;20212;-83
2023/01/16 06:03:52;;;;;;;0.90;0.70;;;;;;;;;;4997052;28;20324;-82
2023/01/16 06:06:18;;;;;;;2.03;0.70;;;;;;;;;;4984124;28;20209;-84
2023/01/16 06:08:48;;;;;;;1.07;0.67;;;;;;;;;;4997138;28;20633;-84
2023/01/16 06:11:14;;;;;;;12.00;1.03;;;;;;;;;;4947052;28;20222;-84
2023/01/16 06:13:42;;;;;;;2.03;0.70;;;;;;;;;;4987285;28;20232;-83
2023/01/16 06:16:08;;;;;;;1.93;0.90;;;;;;;;;;4963830;28;20292;-83
2023/01/16 06:18:33;;;;;;;0.97;0.80;;;;;;;;;;4985134;28;20229;-84
2023/01/16 06:20:59;;;;;;;1.33;0.80;;;;;;;;;;4992752;28;20213;-83
2023/01/16 06:23:30;;;;;;;1.70;0.70;;;;;;;;;;5015877;28;20228;-84
2023/01/16 06:26:00;;;;;;;0.90;0.70;;;;;;;;;;4976628;28;20421;-82
2023/01/16 06:28:28;;;;;;;3.93;1.20;;;;;;;;;;4990572;28;20241;-83
2023/01/16 06:30:56;;;;;;;1.23;0.80;;;;;;;;;;4995924;28;20232;-83
2023/01/16 06:33:25;;;;;;;1.77;0.80;;;;;;;;;;4979675;28;20220;-83
2023/01/16 06:35:50;;;;;;;1.20;0.90;;;;;;;;;;4963232;28;20257;-83
2023/01/16 06:38:16;;;;;;;1.30;0.70;;;;;;;;;;4978035;28;20217;-83
2023/01/16 06:40:44;;;;;;;1.27;0.83;;;;;;;;;;4963438;28;20232;-83
2023/01/16 06:43:10;;;;;;;3.37;0.97;;;;;;;;;;4986810;28;20212;-83
2023/01/16 06:45:36;;;;;;;2.93;0.90;;;;;;;;;;4980788;28;20283;-84
2023/01/16 06:48:02;;;;;;;0.87;0.80;;;;;;;;;;4994147;28;20228;-84
2023/01/16 06:50:32;;;;;;;1.90;1.00;;;;;;;;;;4972945;28;20249;-83
2023/01/16 06:53:00;;;;;;;1.93;0.90;;;;;;;;;;4983460;28;20630;-83
2023/01/16 06:55:27;;;;;;;1.27;0.87;;;;;;;;;;4976304;28;20255;-84
2023/01/16 06:57:53;;;;;;;1.40;0.60;;;;;;;;;;4978670;28;20244;-83
2023/01/16 07:00:19;;;;;;;1.50;0.90;;;;;;;;;;4980820;28;20549;-82
2023/01/16 07:02:50;;;;;;;0.77;0.70;;;;;;;;;;4994355;28;20311;-82
2023/01/16 07:05:16;;;;;;;2.70;1.20;;;;;;;;;;4968391;28;20216;-81
2023/01/16 07:07:41;;;;;;;2.83;0.90;;;;;;;;;;4956558;28;20844;-84
2023/01/16 07:10:08;;;;;;;2.20;0.97;;;;;;;;;;4966154;28;20418;-84
2023/01/16 07:12:35;;;;;;;2.33;0.87;;;;;;;;;;4973713;28;20279;-83
2023/01/16 07:23:24;;;;;;;0.87;0.67;;;;;;;;;;4998472;28;20224;-84
2023/01/16 07:25:52;;;;;;;1.17;0.83;;;;;;;;;;4982471;28;20267;-84
2023/01/16 07:28:17;;;;;;;3.33;1.27;;;;;;;;;;4979637;28;20942;-83
2023/01/16 07:30:43;;;;;;;1.57;1.07;;;;;;;;;;4991733;28;20246;-84
2023/01/16 07:33:09;;;;;;;1.03;0.80;;;;;;;;;;4970150;28;20224;-84
2023/01/16 07:35:38;;;;;;;1.70;0.90;;;;;;;;;;4991563;28;20217;-83
2023/01/16 07:38:03;;;;;;;1.57;0.87;;;;;;;;;;4994499;28;20229;-84
2023/01/16 07:40:29;;;;;;;0.70;0.70;;;;;;;;;;4961444;28;20280;-84
2023/01/16 07:42:54;;;;;;;1.47;1.00;;;;;;;;;;4977520;28;20259;-84
2023/01/16 07:45:22;;;;;;;4.30;1.20;;;;;;;;;;4947902;28;20225;-84
2023/01/16 07:47:47;;;;;;;1.83;1.00;;;;;;;;;;4991426;28;20295;-84
2023/01/16 07:50:13;;;;;;;1.00;0.90;;;;;;;;;;4966942;28;20584;-84
2023/01/16 07:52:38;;;;;;;2.33;0.93;;;;;;;;;;4995345;28;20233;-83
2023/01/16 07:55:07;;;;;;;1.80;0.80;;;;;;;;;;5000222;28;20221;-84
2023/01/16 07:57:38;;;;;;;2.60;1.03;;;;;;;;;;4987089;28;20233;-82
2023/01/16 08:00:07;;;;;;;1.40;0.90;;;;;;;;;;4976181;28;20223;-84
2023/01/16 08:02:40;;;;;;;1.50;0.80;;;;;;;;;;4998655;28;20232;-83
2023/01/16 08:05:06;;;;;;;4.87;0.93;;;;;;;;;;4998561;28;20694;-84
2023/01/16 08:07:32;;;;;;;1.63;1.10;;;;;;;;;;4981151;28;20295;-83
2023/01/16 08:09:57;;;;;;;2.17;1.03;;;;;;;;;;4997044;28;20287;-83
2023/01/16 08:12:25;;;;;;;1.63;0.90;;;;;;;;;;4985950;28;20230;-84
2023/01/16 08:14:53;;;;;;;2.70;1.10;;;;;;;;;;4962876;28;20224;-84
2023/01/16 08:17:18;;;;;;;1.83;0.90;;;;;;;;;;4970094;28;20224;-84
2023/01/16 08:19:46;;;;;;;1.37;0.87;;;;;;;;;;4987220;28;20247;-84
2023/01/16 08:22:14;;;;;;;2.07;0.80;;;;;;;;;;4969608;28;20228;-84
2023/01/16 08:24:42;;;;;;;1.37;0.70;;;;;;;;;;4961476;28;20253;-85
2023/01/16 08:27:09;;;;;;;0.90;0.70;;;;;;;;;;4983389;28;20209;-84
2023/01/16 08:29:38;;;;;;;2.17;0.93;;;;;;;;;;4963964;28;20236;-83
2023/01/16 08:32:06;;;;;;;0.93;0.80;;;;;;;;;;4975066;28;20302;-83
2023/01/16 08:34:34;;;;;;;1.40;0.80;;;;;;;;;;4960164;28;20229;-83
2023/01/16 08:37:04;;;;;;;0.70;0.70;;;;;;;;;;4976174;28;20217;-84
2023/01/16 08:39:29;;;;;;;0.70;0.67;;;;;;;;;;4983048;28;20311;-83
2023/01/16 08:53:00;;;;;;;1.27;0.80;;;;;;;;;;5011692;28;20228;-83
2023/01/16 08:55:26;;;;;;;1.50;0.63;;;;;;;;;;4976944;28;20310;-83
2023/01/16 08:57:51;;;;;;;1.67;0.90;;;;;;;;;;5024777;28;20236;-83
2023/01/16 09:00:22;;;;;;;1.13;0.70;;;;;;;;;;4987412;28;20216;-82
2023/01/16 09:02:53;;;;;;;3.13;0.90;;;;;;;;;;4980488;28;20239;-83
2023/01/16 09:05:24;;;;;;;1.53;1.20;;;;;;;;;;4993641;28;20220;-83
2023/01/16 09:07:50;;;;;;;3.13;0.80;;;;;;;;;;4993714;28;20241;-81
2023/01/16 09:10:16;;;;;;;1.50;0.97;;;;;;;;;;4997343;28;20212;-82
2023/01/16 09:15:28;;;;;;;3.47;0.80;;;;;;;;;;4984592;28;20217;-85
2023/01/16 09:17:58;;;;;;;2.03;0.80;;;;;;;;;;4966270;28;20243;-83
2023/01/16 09:20:27;;;;;;;1.87;0.90;;;;;;;;;;4969912;28;20232;-82
2023/01/16 09:22:59;;;;;;;3.80;0.90;;;;;;;;;;4974187;28;20248;-85
2023/01/16 09:25:25;;;;;;;1.73;0.90;;;;;;;;;;4985371;28;20224;-82
2023/01/16 09:27:53;;;;;;;0.60;0.60;;;;;;;;;;4968650;28;20587;-83
2023/01/16 09:30:18;;;;;;;1.20;0.67;;;;;;;;;;4987634;28;20216;-83
2023/01/16 09:32:47;;;;;;;1.47;1.00;;;;;;;;;;4990558;28;20313;-84
2023/01/16 09:35:15;;;;;;;2.47;0.80;;;;;;;;;;4951603;28;20216;-83
2023/01/16 09:37:42;;;;;;;0.77;0.63;;;;;;;;;;4967337;28;20326;-84
2023/01/16 09:40:15;;;;;;;2.37;1.07;;;;;;;;;;4950144;28;20221;-82
2023/01/16 09:45:37;;;;;;;2.07;1.00;;;;;;;;;;5010415;28;20307;-84
2023/01/16 09:48:04;;;;;;;4.00;0.83;;;;;;;;;;4975996;28;20221;-82
2023/01/16 09:50:39;;;;;;;2.50;0.93;;;;;;;;;;4980379;28;20712;-83
2023/01/16 09:58:47;;;;;;;1.93;1.00;;;;;;;;;;4982553;28;20237;-81
2023/01/16 10:01:23;;;;;;;2.50;1.00;;;;;;;;;;4978230;28;20221;-82
2023/01/16 10:03:49;;;;;;;1.70;0.67;;;;;;;;;;4979435;28;20703;-83
2023/01/16 10:06:29;;;;;;;1.37;0.70;;;;;;;;;;4977375;28;20214;-80
2023/01/16 10:09:12;;;;;;;1.47;0.87;;;;;;;;;;5001449;28;20232;-82
2023/01/16 10:11:40;;;;;;;1.60;1.00;;;;;;;;;;4996109;28;20240;-81
2023/01/16 10:14:19;;;;;;;1.47;0.80;;;;;;;;;;4987848;28;20220;-82
2023/01/16 10:16:47;;;;;;;0.93;0.73;;;;;;;;;;5001458;28;20231;-81
2023/01/16 10:19:46;;;;;;;2.80;1.00;;;;;;;;;;4981647;28;20667;-82
2023/01/16 10:22:23;;;;;;;1.10;0.70;;;;;;;;;;4990627;28;20590;-83
2023/01/16 10:24:56;;;;;;;2.30;0.80;;;;;;;;;;5008589;28;20225;-84
2023/01/16 10:27:39;;;;;;;0.87;0.63;;;;;;;;;;4972813;28;20732;-82
2023/01/16 10:30:08;;;;;;;2.10;1.00;;;;;;;;;;4987967;28;20218;-82
2023/01/16 10:33:13;;;;;;;1.13;0.93;;;;;;;;;;4973769;28;20217;-83
2023/01/16 10:35:48;;;;;;;3.00;0.73;;;;;;;;;;4977739;28;20654;-84
2023/01/16 10:38:41;;;;;;;2.73;0.90;;;;;;;;;;4991831;28;20239;-82
2023/01/16 10:49:25;;;;;;;2.40;0.83;;;;;;;;;;5003463;28;20280;-82
2023/01/16 10:49:35;;;;;;;1.07;0.70;;;;;;;;;;4990331;28;20224;-82
2023/01/16 10:52:03;;;;;;;1.97;0.77;;;;;;;;;;4991880;28;20220;-82
2023/01/16 10:54:31;;;;;;;2.13;0.70;;;;;;;;;;4963112;28;20728;-81
2023/01/16 10:57:03;;;;;;;1.10;0.80;;;;;;;;;;4973102;28;20228;-82
2023/01/16 10:59:34;;;;;;;2.53;1.10;;;;;;;;;;4961594;28;20221;-82
2023/01/16 11:02:03;;;;;;;1.80;0.80;;;;;;;;;;4962242;28;20720;-81
2023/01/16 11:04:33;;;;;;;1.50;1.00;;;;;;;;;;4974921;28;20217;-83
2023/01/16 11:07:12;;;;;;;1.10;0.83;;;;;;;;;;4976990;28;20217;-83
2023/01/16 11:09:40;;;;;;;5.53;0.90;;;;;;;;;;4982205;28;20220;-82
2023/01/16 11:20:31;;;;;;;1.17;0.70;;;;;;;;;;4961936;28;20229;-81
2023/01/16 11:22:59;;;;;;;1.33;0.70;;;;;;;;;;4986119;28;20233;-81
2023/01/16 11:25:25;;;;;;;2.30;0.97;;;;;;;;;;4977790;28;20232;-81
2023/01/16 11:27:51;;;;;;;1.40;0.60;;;;;;;;;;4978760;28;20236;-82
2023/01/16 11:30:32;;;;;;;3.63;0.80;;;;;;;;;;4976527;28;20272;-82
2023/01/16 11:32:58;;;;;;;2.10;0.90;;;;;;;;;;4978347;28;20320;-80
2023/01/16 11:35:34;;;;;;;2.23;0.67;;;;;;;;;;4972788;28;20682;-84
2023/01/16 11:38:02;;;;;;;1.67;0.70;;;;;;;;;;5002144;28;20319;-82
2023/01/16 11:40:31;;;;;;;1.60;0.90;;;;;;;;;;4945258;28;20670;-80
2023/01/16 11:48:38;;;;;;;0.63;0.63;;;;;;;;;;4985632;28;20244;-82
2023/01/16 11:51:05;;;;;;;0.90;0.70;;;;;;;;;;4997081;28;20212;-82
2023/01/16 11:53:32;;;;;;;0.73;0.70;;;;;;;;;;5003386;28;20221;-83
2023/01/16 11:56:10;;;;;;;2.53;0.60;;;;;;;;;;4982106;28;20230;-82
2023/01/16 11:58:41;;;;;;;1.60;0.60;;;;;;;;;;4983138;28;20320;-80
2023/01/16 12:01:28;;;;;;;4.77;0.60;;;;;;;;;;4972711;28;20244;-79
2023/01/16 12:04:15;;;;;;;1.07;0.50;;;;;;;;;;4998584;28;20594;-81
2023/01/16 12:06:41;;;;;;;0.67;0.63;;;;;;;;;;4964813;28;20221;-82
2023/01/16 12:09:28;;;;;;;1.10;0.50;;;;;;;;;;5003821;28;20252;-80
2023/01/16 12:14:17;;;;;;;0.87;0.50;;;;;;;;;;5005447;28;20251;-82
2023/01/16 12:15:01;;;;;;;2.30;0.60;;;;;;;;;;4994555;28;20247;-81
2023/01/16 12:17:38;;;;;;;1.57;0.77;;;;;;;;;;5009786;28;20261;-81
2023/01/16 12:20:13;;;;;;;1.13;0.70;;;;;;;;;;4993928;28;20307;-78
2023/01/16 12:22:51;;;;;;;0.77;0.60;;;;;;;;;;4984172;28;20224;-81
2023/01/16 12:25:44;;;;;;;1.23;0.70;;;;;;;;;;5001957;28;20249;-82
2023/01/16 12:28:18;;;;;;;1.33;0.67;;;;;;;;;;4991038;28;20230;-82
2023/01/16 12:31:34;;;;;;;1.30;0.70;;;;;;;;;;4996825;28;20244;-83
2023/01/16 12:34:47;;;;;;;0.77;0.60;;;;;;;;;;5008185;28;20312;-83
2023/01/16 12:37:35;;;;;;;0.80;0.50;;;;;;;;;;4926663;28;20323;-83
2023/01/16 12:40:19;;;;;;;0.60;0.60;;;;;;;;;;5000981;28;20223;-84
2023/01/16 12:43:23;;;;;;;1.23;0.70;;;;;;;;;;4997973;28;20600;-82
2023/01/16 12:45:58;;;;;;;1.07;0.70;;;;;;;;;;4978931;28;20244;-83
2023/01/16 12:48:44;;;;;;;0.63;0.50;;;;;;;;;;4988998;28;20224;-83
2023/01/16 12:51:35;;;;;;;0.73;0.47;;;;;;;;;;4995275;28;20208;-83
2023/01/16 12:54:23;;;;;;;1.10;0.70;;;;;;;;;;4988709;28;20224;-81
2023/01/16 12:57:07;;;;;;;1.73;0.70;;;;;;;;;;4997394;28;20308;-82
2023/01/16 12:59:38;;;;;;;1.77;0.80;;;;;;;;;;5009181;28;20234;-81
2023/01/16 13:02:34;;;;;;;1.40;0.70;;;;;;;;;;5006529;28;20287;-83
2023/01/16 13:05:18;;;;;;;0.90;0.60;;;;;;;;;;4994720;28;20247;-83
2023/01/16 13:07:59;;;;;;;1.17;0.60;;;;;;;;;;4968403;28;20697;-84
2023/01/16 13:13:21;;;;;;;1.37;0.80;;;;;;;;;;4981457;28;20216;-83
2023/01/16 13:15:50;;;;;;;0.60;0.47;;;;;;;;;;4965156;28;20235;-82
2023/01/16 13:18:20;;;;;;;0.73;0.53;;;;;;;;;;4967068;28;20227;-82
2023/01/16 13:20:52;;;;;;;1.70;0.70;;;;;;;;;;4983469;28;20303;-83
2023/01/16 13:23:25;;;;;;;1.40;0.70;;;;;;;;;;4950530;28;20737;-83
2023/01/16 13:25:57;;;;;;;1.33;0.70;;;;;;;;;;5011549;28;20229;-83
2023/01/16 13:28:41;;;;;;;0.67;0.67;;;;;;;;;;4982669;28;20302;-82
2023/01/16 13:31:12;;;;;;;1.67;0.60;;;;;;;;;;4980196;28;20299;-82
2023/01/16 13:33:41;;;;;;;2.07;0.70;;;;;;;;;;4975252;28;20239;-82
2023/01/16 13:36:27;;;;;;;0.97;0.53;;;;;;;;;;4982953;28;20278;-84
2023/01/16 13:38:52;;;;;;;0.70;0.50;;;;;;;;;;4982906;28;20237;-83
2023/01/16 13:41:27;;;;;;;1.13;0.70;;;;;;;;;;5002612;28;20209;-83
2023/01/16 13:46:48;;;;;;;0.47;0.47;;;;;;;;;;5022699;28;20683;-81
2023/01/16 13:49:24;;;;;;;1.20;0.70;;;;;;;;;;4994600;28;20228;-81
2023/01/16 13:51:52;;;;;;;0.63;0.50;;;;;;;;;;4982875;28;20232;-83
2023/01/16 13:54:21;;;;;;;0.67;0.60;;;;;;;;;;4996819;28;20236;-82
2023/01/16 13:57:00;;;;;;;1.47;0.60;;;;;;;;;;4992247;28;20219;-81
2023/01/16 13:59:39;;;;;;;1.97;0.87;;;;;;;;;;4984477;28;20478;-82
2023/01/16 14:02:33;;;;;;;0.60;0.57;;;;;;;;;;4990661;28;20599;-81
2023/01/16 14:05:16;;;;;;;4.17;0.60;;;;;;;;;;4986859;28;20231;-83
2023/01/16 14:10:40;;;;;;;1.40;0.83;;;;;;;;;;5000998;28;20259;-83
2023/01/16 14:13:15;;;;;;;1.00;0.80;;;;;;;;;;4994320;28;20228;-81
2023/01/16 14:18:39;;;;;;;0.77;0.60;;;;;;;;;;5024038;28;20343;-82
2023/01/16 14:21:36;;;;;;;3.17;0.70;;;;;;;;;;5009647;28;20229;-81
2023/01/16 14:24:15;;;;;;;0.80;0.60;;;;;;;;;;5010511;28;20217;-81
2023/01/16 14:26:48;;;;;;;1.07;0.60;;;;;;;;;;4976917;28;20229;-82
2023/01/16 14:29:29;;;;;;;0.90;0.60;;;;;;;;;;4964650;28;20964;-83
2023/01/16 14:32:13;;;;;;;0.50;0.50;;;;;;;;;;5000228;28;20232;-83
2023/01/16 14:34:57;;;;;;;0.60;0.47;;;;;;;;;;5004764;28;20715;-82
2023/01/16 14:37:28;;;;;;;1.93;0.70;;;;;;;;;;4954812;28;20291;-82
2023/01/16 14:40:16;;;;;;;0.60;0.60;;;;;;;;;;5007616;28;20225;-84
2023/01/16 14:57:03;;;;;;;0.80;0.70;;;;;;;;;;4991107;28;20216;-80
2023/01/16 14:59:36;;;;;;;0.83;0.50;;;;;;;;;;4977661;28;20232;-83
2023/01/16 15:02:19;;;;;;;0.87;0.60;;;;;;;;;;4985726;28;20329;-82
2023/01/16 15:04:58;;;;;;;1.13;0.60;;;;;;;;;;4998670;28;20225;-84
2023/01/16 15:07:50;;;;;;;1.23;0.60;;;;;;;;;;4954138;28;20235;-81
2023/01/16 15:10:21;;;;;;;0.77;0.50;;;;;;;;;;5006029;28;20213;-81
2023/01/16 15:12:47;;;;;;;2.07;0.70;;;;;;;;;;5012406;28;20864;-81
2023/01/16 15:15:24;;;;;;;1.60;1.50;;;;;;;;;;4972528;28;20221;-82
2023/01/16 15:23:23;;;;;;;1.27;0.73;;;;;;;;;;4976871;28;20276;-84
2023/01/16 15:26:24;;;;;;;0.70;0.70;;;;;;;;;;4986708;28;20232;-82
2023/01/16 15:29:21;;;;;;;1.00;0.60;;;;;;;;;;4994890;28;20817;-83
2023/01/16 15:32:02;;;;;;;0.73;0.63;;;;;;;;;;4981817;28;20225;-83
2023/01/16 15:34:41;;;;;;;1.10;0.60;;;;;;;;;;4983054;28;20226;-80
2023/01/16 15:37:31;;;;;;;0.53;0.50;;;;;;;;;;4977956;28;20216;-83
2023/01/16 15:40:08;;;;;;;0.77;0.50;;;;;;;;;;4962534;28;20303;-83
2023/01/16 15:49:26;;;;;;;0.60;0.40;;;;;;;;;;4987265;28;20308;-84
2023/01/16 15:51:52;;;;;;;0.30;0.30;;;;;;;;;;4983469;28;20786;-84
2023/01/16 15:54:26;;;;;;;0.40;0.40;;;;;;;;;;4950334;28;20299;-83
2023/01/16 15:57:06;;;;;;;4.83;0.70;;;;;;;;;;4955509;28;20236;-81
2023/01/16 15:59:35;;;;;;;0.90;0.30;;;;;;;;;;4936403;28;20233;-81
2023/01/16 16:02:20;;;;;;;0.37;0.37;;;;;;;;;;4967407;28;20221;-80
2023/01/16 16:04:55;;;;;;;1.00;0.70;;;;;;;;;;4953751;28;20598;-84
2023/01/16 16:07:25;;;;;;;0.40;0.30;;;;;;;;;;4954351;28;20239;-83
2023/01/16 16:11:51;;;;;;;0.40;0.40;;;;;;;;;;4966470;28;20232;-81
2023/01/16 16:13:08;;;;;;;0.53;0.47;;;;;;;;;;4975690;28;20240;-84
2023/01/16 16:18:20;;;;;;;0.33;0.33;;;;;;;;;;4998643;28;20733;-84
2023/01/16 16:20:53;;;;;;;0.73;0.43;;;;;;;;;;4980266;28;20233;-84
2023/01/16 16:24:02;;;;;;;0.63;0.40;;;;;;;;;;4926195;28;20225;-87
2023/01/16 16:26:44;;;;;;;;;;;;;;;;;;;;;
2023/01/16 16:29:22;;;;;;;0.40;0.40;;;;;;;;;;4965931;28;20261;-88
2023/01/16 16:31:56;;;;;;;0.57;0.50;;;;;;;;;;4985626;28;20342;-87
2023/01/16 16:35:11;;;;;;;0.63;0.63;;;;;;;;;;4958778;28;20948;-85
2023/01/16 16:41:23;;;;;;;1.80;0.60;;;;;;;;;;4988122;28;20237;-77
2023/01/16 16:43:58;;;;;;;0.47;0.47;;;;;;;;;;4990557;28;20467;-78
2023/01/16 16:46:24;;;;;;;0.93;0.40;;;;;;;;;;4992260;28;20217;-78
2023/01/16 16:48:57;;;;;;;0.50;0.50;;;;;;;;;;4972368;28;20308;-78
2023/01/16 16:51:30;;;;;;;0.43;0.43;;;;;;;;;;4958530;28;20237;-78
2023/01/16 16:54:05;;;;;;;0.40;0.40;;;;;;;;;;4949713;28;20230;-78
2023/01/16 16:56:35;;;;;;;0.40;0.40;;;;;;;;;;4955963;28;20247;-77
2023/01/16 16:59:03;;;;;;;0.43;0.43;;;;;;;;;;4992688;28;20286;-78